sensor_id;sensor_type;location;lat;lon;timestamp;pressure;altitude;pressure_sealevel;temperature;humidity
66703;BME280;60933;46.398;-63.798;2023-07-22T00:01:22;101018.66;;;22.64;78.92
66703;BME280;60933;46.398;-63.798;2023-07-22T00:03:48;101018.97;;;22.59;79.51
66703;BME280;60933;46.398;-63.798;2023-07-22T00:06:14;101025.63;;;22.52;79.26
66703;BME280;60933;46.398;-63.798;2023-07-22T00:08:40;101007.25;;;22.39;79.68
66703;BME280;60933;46.398;-63.798;2023-07-22T00:11:07;101000.22;;;22.39;79.48
66703;BME280;60933;46.398;-63.798;2023-07-22T00:13:34;101018.91;;;22.35;79.40
66703;BME280;60933;46.398;-63.798;2023-07-22T00:16:01;101021.75;;;22.32;79.57
66703;BME280;60933;46.398;-63.798;2023-07-22T00:18:30;101022.06;;;22.27;79.48
66703;BME280;60933;46.398;-63.798;2023-07-22T00:20:57;101010.91;;;22.23;79.32
66703;BME280;60933;46.398;-63.798;2023-07-22T00:23:23;101025.44;;;22.16;79.43
66703;BME280;60933;46.398;-63.798;2023-07-22T00:25:50;101036.19;;;22.13;79.75
66703;BME280;60933;46.398;-63.798;2023-07-22T00:28:17;101027.97;;;22.05;79.04
66703;BME280;60933;46.398;-63.798;2023-07-22T00:30:44;101031.75;;;22.01;79.01
66703;BME280;60933;46.398;-63.798;2023-07-22T00:33:10;101032.19;;;21.94;79.51
66703;BME280;60933;46.398;-63.798;2023-07-22T00:35:38;101032.59;;;21.88;79.50
66703;BME280;60933;46.398;-63.798;2023-07-22T00:38:04;101043.44;;;21.84;79.07
66703;BME280;60933;46.398;-63.798;2023-07-22T00:40:31;101036.91;;;21.76;79.98
66703;BME280;60933;46.398;-63.798;2023-07-22T00:43:01;101046.97;;;21.70;80.11
66703;BME280;60933;46.398;-63.798;2023-07-22T00:45:27;101045.41;;;21.67;79.93
66703;BME280;60933;46.398;-63.798;2023-07-22T00:47:53;101030.25;;;21.58;80.71
66703;BME280;60933;46.398;-63.798;2023-07-22T00:50:19;101039.16;;;21.55;80.56
66703;BME280;60933;46.398;-63.798;2023-07-22T00:52:45;101036.75;;;21.52;81.07
66703;BME280;60933;46.398;-63.798;2023-07-22T00:55:11;101023.06;;;21.47;81.55
66703;BME280;60933;46.398;-63.798;2023-07-22T00:57:37;101031.16;;;21.44;80.27
66703;BME280;60933;46.398;-63.798;2023-07-22T01:00:05;101027.03;;;21.40;81.52
66703;BME280;60933;46.398;-63.798;2023-07-22T01:02:31;101015.66;;;21.26;81.49
66703;BME280;60933;46.398;-63.798;2023-07-22T01:04:58;101027.63;;;21.30;82.10
66703;BME280;60933;46.398;-63.798;2023-07-22T01:07:24;101013.97;;;21.25;82.52
66703;BME280;60933;46.398;-63.798;2023-07-22T01:09:56;101016.81;;;21.22;82.54
66703;BME280;60933;46.398;-63.798;2023-07-22T01:12:22;101012.50;;;21.21;82.33
66703;BME280;60933;46.398;-63.798;2023-07-22T01:14:48;101010.81;;;21.20;81.95
66703;BME280;60933;46.398;-63.798;2023-07-22T01:17:14;101015.22;;;21.19;82.23
66703;BME280;60933;46.398;-63.798;2023-07-22T01:19:41;101003.13;;;21.17;82.67
66703;BME280;60933;46.398;-63.798;2023-07-22T01:22:07;100985.94;;;21.13;82.61
66703;BME280;60933;46.398;-63.798;2023-07-22T01:24:33;101004.00;;;21.17;82.98
66703;BME280;60933;46.398;-63.798;2023-07-22T01:27:00;101005.03;;;21.15;82.32
66703;BME280;60933;46.398;-63.798;2023-07-22T01:29:26;100984.06;;;21.15;82.26
66703;BME280;60933;46.398;-63.798;2023-07-22T01:31:54;100975.44;;;21.13;82.52
66703;BME280;60933;46.398;-63.798;2023-07-22T01:34:21;100974.50;;;21.14;82.03
66703;BME280;60933;46.398;-63.798;2023-07-22T01:36:48;100979.81;;;21.12;82.44
66703;BME280;60933;46.398;-63.798;2023-07-22T01:39:15;100989.38;;;21.13;82.58
66703;BME280;60933;46.398;-63.798;2023-07-22T01:41:42;100992.88;;;21.14;82.88
66703;BME280;60933;46.398;-63.798;2023-07-22T01:44:08;100989.38;;;21.13;82.94
66703;BME280;60933;46.398;-63.798;2023-07-22T01:46:35;100978.56;;;21.18;82.59
66703;BME280;60933;46.398;-63.798;2023-07-22T01:49:05;100985.69;;;21.16;82.92
66703;BME280;60933;46.398;-63.798;2023-07-22T01:51:36;100968.31;;;21.15;81.99
66703;BME280;60933;46.398;-63.798;2023-07-22T01:54:06;100968.38;;;21.13;81.70
66703;BME280;60933;46.398;-63.798;2023-07-22T01:56:33;100980.69;;;21.13;81.31
66703;BME280;60933;46.398;-63.798;2023-07-22T01:58:59;100998.09;;;21.14;81.36
66703;BME280;60933;46.398;-63.798;2023-07-22T02:01:25;100999.03;;;21.13;81.62
66703;BME280;60933;46.398;-63.798;2023-07-22T02:03:51;100984.25;;;21.12;81.24
66703;BME280;60933;46.398;-63.798;2023-07-22T02:06:17;100988.53;;;21.13;81.38
66703;BME280;60933;46.398;-63.798;2023-07-22T02:08:43;100989.28;;;21.15;81.84
66703;BME280;60933;46.398;-63.798;2023-07-22T02:11:10;100988.31;;;21.16;81.16
66703;BME280;60933;46.398;-63.798;2023-07-22T02:13:36;100985.00;;;21.14;81.51
66703;BME280;60933;46.398;-63.798;2023-07-22T02:16:02;100983.81;;;21.18;81.49
66703;BME280;60933;46.398;-63.798;2023-07-22T02:18:29;100975.19;;;21.16;81.67
66703;BME280;60933;46.398;-63.798;2023-07-22T02:20:56;100971.63;;;21.17;81.63
66703;BME280;60933;46.398;-63.798;2023-07-22T02:23:23;100988.31;;;21.16;81.71
66703;BME280;60933;46.398;-63.798;2023-07-22T02:25:51;100997.06;;;21.16;82.28
66703;BME280;60933;46.398;-63.798;2023-07-22T02:28:18;100993.56;;;21.16;82.16
66703;BME280;60933;46.398;-63.798;2023-07-22T02:30:49;100992.63;;;21.17;82.49
66703;BME280;60933;46.398;-63.798;2023-07-22T02:33:16;100986.56;;;21.16;82.21
66703;BME280;60933;46.398;-63.798;2023-07-22T02:35:42;100985.63;;;21.17;82.22
66703;BME280;60933;46.398;-63.798;2023-07-22T02:38:08;100988.13;;;21.19;82.47
66703;BME280;60933;46.398;-63.798;2023-07-22T02:40:36;100981.19;;;21.18;82.36
66703;BME280;60933;46.398;-63.798;2023-07-22T02:43:02;100984.56;;;21.20;82.54
66703;BME280;60933;46.398;-63.798;2023-07-22T02:45:29;100969.00;;;21.17;82.12
66703;BME280;60933;46.398;-63.798;2023-07-22T02:47:55;100986.03;;;21.24;82.33
66703;BME280;60933;46.398;-63.798;2023-07-22T02:50:21;100966.84;;;21.24;81.87
66703;BME280;60933;46.398;-63.798;2023-07-22T02:52:48;100971.16;;;21.25;81.37
66703;BME280;60933;46.398;-63.798;2023-07-22T02:55:16;100959.91;;;21.23;82.47
66703;BME280;60933;46.398;-63.798;2023-07-22T02:57:46;100961.88;;;21.19;82.16
66703;BME280;60933;46.398;-63.798;2023-07-22T03:00:17;100955.69;;;21.20;82.70
66703;BME280;60933;46.398;-63.798;2023-07-22T03:02:51;100948.88;;;21.17;82.71
66703;BME280;60933;46.398;-63.798;2023-07-22T03:05:18;100948.03;;;21.17;82.46
66703;BME280;60933;46.398;-63.798;2023-07-22T03:07:45;100941.09;;;21.16;82.13
66703;BME280;60933;46.398;-63.798;2023-07-22T03:10:11;100928.81;;;21.16;82.15
66703;BME280;60933;46.398;-63.798;2023-07-22T03:12:38;100920.50;;;21.10;82.60
66703;BME280;60933;46.398;-63.798;2023-07-22T03:15:04;100910.00;;;21.10;83.46
66703;BME280;60933;46.398;-63.798;2023-07-22T03:17:35;100875.38;;;21.05;82.92
66703;BME280;60933;46.398;-63.798;2023-07-22T03:20:03;100915.47;;;21.07;83.10
66703;BME280;60933;46.398;-63.798;2023-07-22T03:22:45;100989.78;;;21.07;82.05
66703;BME280;60933;46.398;-63.798;2023-07-22T03:25:13;101011.59;;;21.08;79.95
66703;BME280;60933;46.398;-63.798;2023-07-22T03:27:39;101003.19;;;21.02;79.53
66703;BME280;60933;46.398;-63.798;2023-07-22T03:30:07;101009.72;;;21.10;81.83
66703;BME280;60933;46.398;-63.798;2023-07-22T03:32:34;100997.66;;;21.07;82.96
66703;BME280;60933;46.398;-63.798;2023-07-22T03:35:01;100996.06;;;21.05;84.88
66703;BME280;60933;46.398;-63.798;2023-07-22T03:37:30;100964.78;;;21.01;85.99
66703;BME280;60933;46.398;-63.798;2023-07-22T03:39:57;100952.88;;;20.96;84.73
66703;BME280;60933;46.398;-63.798;2023-07-22T03:42:23;100984.38;;;20.96;83.12
66703;BME280;60933;46.398;-63.798;2023-07-22T03:44:49;100949.44;;;20.95;85.27
66703;BME280;60933;46.398;-63.798;2023-07-22T03:47:15;100953.00;;;20.94;85.37
66703;BME280;60933;46.398;-63.798;2023-07-22T03:49:41;100961.16;;;20.90;84.35
66703;BME280;60933;46.398;-63.798;2023-07-22T03:52:07;100971.13;;;20.84;84.76
66703;BME280;60933;46.398;-63.798;2023-07-22T03:54:33;100921.72;;;20.91;87.38
66703;BME280;60933;46.398;-63.798;2023-07-22T03:57:00;100934.22;;;20.87;87.90
66703;BME280;60933;46.398;-63.798;2023-07-22T03:59:26;100909.09;;;20.83;88.70
66703;BME280;60933;46.398;-63.798;2023-07-22T04:01:54;100924.22;;;20.80;88.54
66703;BME280;60933;46.398;-63.798;2023-07-22T04:04:20;100918.13;;;20.79;89.02
66703;BME280;60933;46.398;-63.798;2023-07-22T04:06:46;100909.81;;;20.73;86.48
66703;BME280;60933;46.398;-63.798;2023-07-22T04:09:12;100913.06;;;20.76;87.13
66703;BME280;60933;46.398;-63.798;2023-07-22T04:11:38;100912.03;;;20.79;88.69
66703;BME280;60933;46.398;-63.798;2023-07-22T04:14:04;100913.81;;;20.78;87.29
66703;BME280;60933;46.398;-63.798;2023-07-22T04:16:30;100912.03;;;20.79;87.29
66703;BME280;60933;46.398;-63.798;2023-07-22T04:18:56;100910.16;;;20.81;86.50
66703;BME280;60933;46.398;-63.798;2023-07-22T04:21:23;100875.94;;;20.82;87.74
66703;BME280;60933;46.398;-63.798;2023-07-22T04:23:49;100873.22;;;20.84;87.83
66703;BME280;60933;46.398;-63.798;2023-07-22T04:26:15;100869.53;;;20.74;89.28
66703;BME280;60933;46.398;-63.798;2023-07-22T04:28:42;100877.63;;;20.83;89.98
66703;BME280;60933;46.398;-63.798;2023-07-22T04:31:08;100867.25;;;20.82;90.26
66703;BME280;60933;46.398;-63.798;2023-07-22T04:33:35;100829.78;;;20.80;90.46
66703;BME280;60933;46.398;-63.798;2023-07-22T04:36:01;100849.72;;;20.82;90.34
66703;BME280;60933;46.398;-63.798;2023-07-22T04:38:27;100876.16;;;20.79;87.53
66703;BME280;60933;46.398;-63.798;2023-07-22T04:40:54;100875.31;;;20.79;88.75
66703;BME280;60933;46.398;-63.798;2023-07-22T04:43:20;100867.34;;;20.80;90.13
66703;BME280;60933;46.398;-63.798;2023-07-22T04:45:46;100869.22;;;20.78;87.54
66703;BME280;60933;46.398;-63.798;2023-07-22T04:48:20;100849.06;;;20.79;87.50
66703;BME280;60933;46.398;-63.798;2023-07-22T04:50:48;100864.66;;;20.67;87.08
66703;BME280;60933;46.398;-63.798;2023-07-22T04:53:14;100944.06;;;20.69;84.04
66703;BME280;60933;46.398;-63.798;2023-07-22T04:55:40;100980.22;;;20.79;83.34
66703;BME280;60933;46.398;-63.798;2023-07-22T04:58:07;100947.81;;;20.80;83.07
66703;BME280;60933;46.398;-63.798;2023-07-22T05:00:35;100901.03;;;20.86;88.55
66703;BME280;60933;46.398;-63.798;2023-07-22T05:03:03;100860.31;;;20.81;90.95
66703;BME280;60933;46.398;-63.798;2023-07-22T05:05:30;100861.00;;;20.70;90.48
66703;BME280;60933;46.398;-63.798;2023-07-22T05:07:56;100872.53;;;20.67;89.47
66703;BME280;60933;46.398;-63.798;2023-07-22T05:10:22;100848.38;;;20.62;87.97
66703;BME280;60933;46.398;-63.798;2023-07-22T05:12:48;100851.22;;;20.59;88.26
66703;BME280;60933;46.398;-63.798;2023-07-22T05:15:14;100840.59;;;20.61;89.20
66703;BME280;60933;46.398;-63.798;2023-07-22T05:17:41;100825.91;;;20.58;90.42
66703;BME280;60933;46.398;-63.798;2023-07-22T05:20:07;100836.81;;;20.52;89.55
66703;BME280;60933;46.398;-63.798;2023-07-22T05:22:39;100844.97;;;20.47;89.79
66703;BME280;60933;46.398;-63.798;2023-07-22T05:25:06;100829.34;;;20.46;89.87
66703;BME280;60933;46.398;-63.798;2023-07-22T05:27:33;100821.50;;;20.46;88.51
66703;BME280;60933;46.398;-63.798;2023-07-22T05:29:59;100820.75;;;20.44;89.02
66703;BME280;60933;46.398;-63.798;2023-07-22T05:32:27;100830.47;;;20.42;89.76
66703;BME280;60933;46.398;-63.798;2023-07-22T05:34:53;100850.41;;;20.44;90.48
66703;BME280;60933;46.398;-63.798;2023-07-22T05:37:19;100881.03;;;20.44;89.89
66703;BME280;60933;46.398;-63.798;2023-07-22T05:39:45;100894.03;;;20.45;90.92
66703;BME280;60933;46.398;-63.798;2023-07-22T05:42:11;100869.28;;;20.36;92.19
66703;BME280;60933;46.398;-63.798;2023-07-22T05:44:37;100874.41;;;20.38;91.40
66703;BME280;60933;46.398;-63.798;2023-07-22T05:47:04;100868.53;;;20.34;91.67
66703;BME280;60933;46.398;-63.798;2023-07-22T05:49:30;100859.81;;;20.34;92.20
66703;BME280;60933;46.398;-63.798;2023-07-22T05:51:56;100869.66;;;20.30;92.37
66703;BME280;60933;46.398;-63.798;2023-07-22T05:54:22;100868.16;;;20.26;93.34
66703;BME280;60933;46.398;-63.798;2023-07-22T05:56:48;100872.66;;;20.24;93.01
66703;BME280;60933;46.398;-63.798;2023-07-22T05:59:14;100872.94;;;20.19;93.57
66703;BME280;60933;46.398;-63.798;2023-07-22T06:01:41;100872.13;;;20.19;92.86
66703;BME280;60933;46.398;-63.798;2023-07-22T06:04:07;100881.31;;;20.12;92.41
66703;BME280;60933;46.398;-63.798;2023-07-22T06:06:33;100904.78;;;20.13;91.24
66703;BME280;60933;46.398;-63.798;2023-07-22T06:09:00;100890.09;;;20.11;92.09
66703;BME280;60933;46.398;-63.798;2023-07-22T06:11:26;100891.97;;;20.08;92.11
66703;BME280;60933;46.398;-63.798;2023-07-22T06:13:52;100885.16;;;20.06;92.59
66703;BME280;60933;46.398;-63.798;2023-07-22T06:16:18;100907.03;;;20.05;91.06
66703;BME280;60933;46.398;-63.798;2023-07-22T06:18:44;100928.88;;;20.05;90.96
66703;BME280;60933;46.398;-63.798;2023-07-22T06:21:10;100917.72;;;20.02;90.85
66703;BME280;60933;46.398;-63.798;2023-07-22T06:23:36;100926.81;;;19.96;91.47
66703;BME280;60933;46.398;-63.798;2023-07-22T06:26:02;100933.53;;;20.00;91.45
66703;BME280;60933;46.398;-63.798;2023-07-22T06:28:29;100930.91;;;20.00;90.41
66703;BME280;60933;46.398;-63.798;2023-07-22T06:30:57;100916.16;;;19.99;91.26
66703;BME280;60933;46.398;-63.798;2023-07-22T06:33:23;100918.75;;;19.99;92.06
66703;BME280;60933;46.398;-63.798;2023-07-22T06:35:49;100928.50;;;19.97;92.07
66703;BME280;60933;46.398;-63.798;2023-07-22T06:38:15;100924.34;;;19.93;92.44
66703;BME280;60933;46.398;-63.798;2023-07-22T06:40:41;100924.19;;;19.96;91.10
66703;BME280;60933;46.398;-63.798;2023-07-22T06:43:07;100936.34;;;19.97;91.15
66703;BME280;60933;46.398;-63.798;2023-07-22T06:45:33;100930.25;;;19.97;90.55
66703;BME280;60933;46.398;-63.798;2023-07-22T06:47:59;100931.94;;;19.98;90.86
66703;BME280;60933;46.398;-63.798;2023-07-22T06:50:26;100929.25;;;19.99;91.52
66703;BME280;60933;46.398;-63.798;2023-07-22T06:52:52;100918.94;;;19.96;91.82
66703;BME280;60933;46.398;-63.798;2023-07-22T06:55:18;100918.13;;;19.96;92.47
66703;BME280;60933;46.398;-63.798;2023-07-22T06:57:48;100920.09;;;19.92;93.14
66703;BME280;60933;46.398;-63.798;2023-07-22T07:00:14;100956.00;;;19.90;93.03
66703;BME280;60933;46.398;-63.798;2023-07-22T07:02:41;100970.03;;;19.89;93.41
66703;BME280;60933;46.398;-63.798;2023-07-22T07:05:07;100972.06;;;19.84;94.54
66703;BME280;60933;46.398;-63.798;2023-07-22T07:07:33;100965.13;;;19.83;94.07
66703;BME280;60933;46.398;-63.798;2023-07-22T07:10:00;100949.59;;;19.80;94.98
66703;BME280;60933;46.398;-63.798;2023-07-22T07:12:26;100941.75;;;19.80;95.55
66703;BME280;60933;46.398;-63.798;2023-07-22T07:14:53;100943.59;;;19.77;96.02
66703;BME280;60933;46.398;-63.798;2023-07-22T07:17:22;100942.88;;;19.75;96.05
66703;BME280;60933;46.398;-63.798;2023-07-22T07:19:48;100954.44;;;19.71;96.11
66703;BME280;60933;46.398;-63.798;2023-07-22T07:22:14;100957.16;;;19.70;96.42
66703;BME280;60933;46.398;-63.798;2023-07-22T07:24:40;100952.03;;;19.68;95.77
66703;BME280;60933;46.398;-63.798;2023-07-22T07:27:10;100934.63;;;19.67;95.66
66703;BME280;60933;46.398;-63.798;2023-07-22T07:29:36;100934.81;;;19.64;95.43
66703;BME280;60933;46.398;-63.798;2023-07-22T07:32:02;100930.69;;;19.60;94.95
66703;BME280;60933;46.398;-63.798;2023-07-22T07:34:28;100935.84;;;19.61;94.92
66703;BME280;60933;46.398;-63.798;2023-07-22T07:36:54;100949.03;;;19.60;94.52
66703;BME280;60933;46.398;-63.798;2023-07-22T07:39:20;100949.84;;;19.60;94.79
66703;BME280;60933;46.398;-63.798;2023-07-22T07:41:47;100962.19;;;19.58;95.14
66703;BME280;60933;46.398;-63.798;2023-07-22T07:44:13;100971.56;;;19.63;95.84
66703;BME280;60933;46.398;-63.798;2023-07-22T07:46:39;100963.59;;;19.64;96.59
66703;BME280;60933;46.398;-63.798;2023-07-22T07:49:05;100963.81;;;19.61;95.42
66703;BME280;60933;46.398;-63.798;2023-07-22T07:51:31;100970.91;;;19.59;96.09
66703;BME280;60933;46.398;-63.798;2023-07-22T07:53:59;100959.56;;;19.58;95.66
66703;BME280;60933;46.398;-63.798;2023-07-22T07:56:25;100951.81;;;19.57;96.93
66703;BME280;60933;46.398;-63.798;2023-07-22T07:58:52;100950.31;;;19.53;96.69
66703;BME280;60933;46.398;-63.798;2023-07-22T08:01:19;100940.78;;;19.52;97.37
66703;BME280;60933;46.398;-63.798;2023-07-22T08:03:46;100946.19;;;19.49;97.70
66703;BME280;60933;46.398;-63.798;2023-07-22T08:06:13;100933.97;;;19.49;98.64
66703;BME280;60933;46.398;-63.798;2023-07-22T08:08:39;100921.88;;;19.46;98.80
66703;BME280;60933;46.398;-63.798;2023-07-22T08:11:08;100931.41;;;19.48;98.66
66703;BME280;60933;46.398;-63.798;2023-07-22T08:13:36;100926.28;;;19.46;98.32
66703;BME280;60933;46.398;-63.798;2023-07-22T08:16:04;100910.66;;;19.44;99.48
66703;BME280;60933;46.398;-63.798;2023-07-22T08:18:31;100898.50;;;19.43;99.18
66703;BME280;60933;46.398;-63.798;2023-07-22T08:20:58;100891.59;;;19.42;99.64
66703;BME280;60933;46.398;-63.798;2023-07-22T08:23:24;100875.88;;;19.42;99.79
66703;BME280;60933;46.398;-63.798;2023-07-22T08:25:50;100883.06;;;19.39;100.00
66703;BME280;60933;46.398;-63.798;2023-07-22T08:28:17;100882.72;;;19.45;100.00
66703;BME280;60933;46.398;-63.798;2023-07-22T08:30:43;100878.22;;;19.47;100.00
66703;BME280;60933;46.398;-63.798;2023-07-22T08:33:11;100867.56;;;19.50;100.00
66703;BME280;60933;46.398;-63.798;2023-07-22T08:35:38;100885.97;;;19.49;100.00
66703;BME280;60933;46.398;-63.798;2023-07-22T08:38:05;100876.16;;;19.52;100.00
66703;BME280;60933;46.398;-63.798;2023-07-22T08:40:39;100861.88;;;19.58;100.00
66703;BME280;60933;46.398;-63.798;2023-07-22T08:43:07;100846.91;;;19.60;100.00
66703;BME280;60933;46.398;-63.798;2023-07-22T08:45:35;100829.69;;;19.56;100.00
66703;BME280;60933;46.398;-63.798;2023-07-22T08:48:09;100819.16;;;19.57;100.00
66703;BME280;60933;46.398;-63.798;2023-07-22T08:50:42;100805.41;;;19.54;100.00
66703;BME280;60933;46.398;-63.798;2023-07-22T08:53:10;100792.50;;;19.51;100.00
66703;BME280;60933;46.398;-63.798;2023-07-22T08:55:38;100763.88;;;19.48;100.00
66703;BME280;60933;46.398;-63.798;2023-07-22T08:58:08;100745.75;;;19.44;100.00
66703;BME280;60933;46.398;-63.798;2023-07-22T09:00:35;100745.75;;;19.44;100.00
66703;BME280;60933;46.398;-63.798;2023-07-22T09:03:02;100770.25;;;19.43;100.00
66703;BME280;60933;46.398;-63.798;2023-07-22T09:05:28;100810.44;;;19.42;100.00
66703;BME280;60933;46.398;-63.798;2023-07-22T09:07:56;100858.38;;;19.43;100.00
66703;BME280;60933;46.398;-63.798;2023-07-22T09:10:24;100882.97;;;19.40;100.00
66703;BME280;60933;46.398;-63.798;2023-07-22T09:12:53;100891.75;;;19.39;97.79
66703;BME280;60933;46.398;-63.798;2023-07-22T09:15:20;100888.41;;;19.37;98.65
66703;BME280;60933;46.398;-63.798;2023-07-22T09:17:47;100895.03;;;19.43;99.63
66703;BME280;60933;46.398;-63.798;2023-07-22T09:20:14;100901.50;;;19.52;100.00
66703;BME280;60933;46.398;-63.798;2023-07-22T09:22:45;100890.47;;;19.46;100.00
66703;BME280;60933;46.398;-63.798;2023-07-22T09:25:19;100893.28;;;19.43;100.00
66703;BME280;60933;46.398;-63.798;2023-07-22T09:27:46;100881.88;;;19.44;100.00
66703;BME280;60933;46.398;-63.798;2023-07-22T09:32:50;100860.56;;;19.36;100.00
66703;BME280;60933;46.398;-63.798;2023-07-22T09:35:17;100840.91;;;19.29;100.00
66703;BME280;60933;46.398;-63.798;2023-07-22T09:37:44;100847.09;;;19.28;100.00
66703;BME280;60933;46.398;-63.798;2023-07-22T09:42:52;100825.41;;;19.26;100.00
66703;BME280;60933;46.398;-63.798;2023-07-22T09:45:21;100817.75;;;19.23;100.00
66703;BME280;60933;46.398;-63.798;2023-07-22T09:47:48;100843.97;;;19.21;100.00
66703;BME280;60933;46.398;-63.798;2023-07-22T09:50:20;100845.88;;;19.19;100.00
66703;BME280;60933;46.398;-63.798;2023-07-22T09:52:59;100849.16;;;19.23;100.00
66703;BME280;60933;46.398;-63.798;2023-07-22T09:55:28;100876.31;;;19.20;100.00
66703;BME280;60933;46.398;-63.798;2023-07-22T09:57:59;100880.72;;;19.20;100.00
66703;BME280;60933;46.398;-63.798;2023-07-22T10:00:35;100833.34;;;19.24;100.00
66703;BME280;60933;46.398;-63.798;2023-07-22T10:03:03;100815.03;;;19.24;100.00
66703;BME280;60933;46.398;-63.798;2023-07-22T10:05:33;100805.59;;;19.22;100.00
66703;BME280;60933;46.398;-63.798;2023-07-22T10:08:00;100799.44;;;19.23;100.00
66703;BME280;60933;46.398;-63.798;2023-07-22T10:12:57;100789.13;;;19.20;100.00
66703;BME280;60933;46.398;-63.798;2023-07-22T10:15:25;100788.00;;;19.24;100.00
66703;BME280;60933;46.398;-63.798;2023-07-22T10:17:53;100788.97;;;19.23;100.00
66703;BME280;60933;46.398;-63.798;2023-07-22T10:20:22;100790.63;;;19.24;100.00
66703;BME280;60933;46.398;-63.798;2023-07-22T10:22:50;100797.75;;;19.22;100.00
66703;BME280;60933;46.398;-63.798;2023-07-22T10:25:20;100803.16;;;19.19;100.00
66703;BME280;60933;46.398;-63.798;2023-07-22T10:27:48;100822.13;;;19.22;100.00
66703;BME280;60933;46.398;-63.798;2023-07-22T10:30:16;100838.75;;;19.21;100.00
66703;BME280;60933;46.398;-63.798;2023-07-22T10:35:11;100860.53;;;19.22;100.00
66703;BME280;60933;46.398;-63.798;2023-07-22T10:37:44;100867.47;;;19.23;100.00
66703;BME280;60933;46.398;-63.798;2023-07-22T10:40:17;100848.13;;;19.25;100.00
66703;BME280;60933;46.398;-63.798;2023-07-22T10:43:06;100856.78;;;19.26;100.00
66703;BME280;60933;46.398;-63.798;2023-07-22T10:45:51;100869.78;;;19.27;100.00
66703;BME280;60933;46.398;-63.798;2023-07-22T10:48:19;100884.56;;;19.28;100.00
66703;BME280;60933;46.398;-63.798;2023-07-22T10:50:50;100880.34;;;19.26;100.00
66703;BME280;60933;46.398;-63.798;2023-07-22T10:56:11;100875.88;;;19.28;100.00
66703;BME280;60933;46.398;-63.798;2023-07-22T11:06:32;100832.13;;;19.30;100.00
66703;BME280;60933;46.398;-63.798;2023-07-22T11:08:58;100812.31;;;19.26;100.00
66703;BME280;60933;46.398;-63.798;2023-07-22T11:11:41;100838.84;;;19.34;100.00
66703;BME280;60933;46.398;-63.798;2023-07-22T11:14:16;100883.19;;;19.37;100.00
66703;BME280;60933;46.398;-63.798;2023-07-22T11:16:44;100906.63;;;19.39;100.00
66703;BME280;60933;46.398;-63.798;2023-07-22T11:19:10;100914.50;;;19.39;100.00
66703;BME280;60933;46.398;-63.798;2023-07-22T11:21:36;100919.25;;;19.46;100.00
66703;BME280;60933;46.398;-63.798;2023-07-22T11:24:06;100935.63;;;19.50;100.00
66703;BME280;60933;46.398;-63.798;2023-07-22T11:26:33;100924.22;;;19.51;100.00
66703;BME280;60933;46.398;-63.798;2023-07-22T11:29:04;100921.53;;;19.53;100.00
66703;BME280;60933;46.398;-63.798;2023-07-22T11:31:35;100908.25;;;19.56;100.00
66703;BME280;60933;46.398;-63.798;2023-07-22T11:34:16;100898.16;;;19.64;100.00
66703;BME280;60933;46.398;-63.798;2023-07-22T11:36:43;100880.41;;;19.69;100.00
66703;BME280;60933;46.398;-63.798;2023-07-22T11:39:14;100873.84;;;19.76;100.00
66703;BME280;60933;46.398;-63.798;2023-07-22T11:41:41;100876.84;;;19.85;100.00
66703;BME280;60933;46.398;-63.798;2023-07-22T11:44:09;100871.13;;;19.92;100.00
66703;BME280;60933;46.398;-63.798;2023-07-22T11:47:01;100873.09;;;20.03;100.00
66703;BME280;60933;46.398;-63.798;2023-07-22T11:54:28;100860.94;;;20.30;100.00
66703;BME280;60933;46.398;-63.798;2023-07-22T11:56:55;100858.03;;;20.34;100.00
66703;BME280;60933;46.398;-63.798;2023-07-22T11:59:38;100855.22;;;20.37;100.00
66703;BME280;60933;46.398;-63.798;2023-07-22T12:02:05;100860.06;;;20.44;100.00
66703;BME280;60933;46.398;-63.798;2023-07-22T12:04:33;100869.63;;;20.45;99.26
66703;BME280;60933;46.398;-63.798;2023-07-22T12:07:01;100869.22;;;20.51;98.32
66703;BME280;60933;46.398;-63.798;2023-07-22T12:09:27;100876.16;;;20.52;98.25
66703;BME280;60933;46.398;-63.798;2023-07-22T12:11:57;100882.75;;;20.58;97.68
66703;BME280;60933;46.398;-63.798;2023-07-22T12:14:31;100862.22;;;20.64;97.64
66703;BME280;60933;46.398;-63.798;2023-07-22T12:16:59;100855.47;;;20.75;97.30
66703;BME280;60933;46.398;-63.798;2023-07-22T12:19:28;100858.50;;;20.81;97.25
66703;BME280;60933;46.398;-63.798;2023-07-22T12:21:55;100874.28;;;20.94;97.21
66703;BME280;60933;46.398;-63.798;2023-07-22T12:24:21;100872.00;;;21.02;96.50
66703;BME280;60933;46.398;-63.798;2023-07-22T12:26:47;100870.00;;;21.06;96.12
66703;BME280;60933;46.398;-63.798;2023-07-22T12:29:13;100881.69;;;21.15;96.27
66703;BME280;60933;46.398;-63.798;2023-07-22T12:31:39;100873.38;;;21.21;95.88
66703;BME280;60933;46.398;-63.798;2023-07-22T12:34:05;100864.47;;;21.24;95.17
66703;BME280;60933;46.398;-63.798;2023-07-22T12:36:31;100864.34;;;21.25;93.99
66703;BME280;60933;46.398;-63.798;2023-07-22T12:38:57;100861.53;;;21.28;94.26
66703;BME280;60933;46.398;-63.798;2023-07-22T12:41:23;100846.28;;;21.33;94.32
66703;BME280;60933;46.398;-63.798;2023-07-22T12:43:49;100849.84;;;21.32;94.10
66703;BME280;60933;46.398;-63.798;2023-07-22T12:46:15;100859.00;;;21.40;93.52
66703;BME280;60933;46.398;-63.798;2023-07-22T12:48:42;100858.78;;;21.43;93.54
66703;BME280;60933;46.398;-63.798;2023-07-22T12:51:08;100857.72;;;21.45;93.35
66703;BME280;60933;46.398;-63.798;2023-07-22T12:53:35;100851.75;;;21.43;93.37
66703;BME280;60933;46.398;-63.798;2023-07-22T12:56:01;100849.75;;;21.47;93.67